createdAt,value
2023-04-24T00:01:59.484Z,85.10
2023-04-24T00:04:27.185Z,85.30
2023-04-24T00:06:58.088Z,85.30
2023-04-24T00:09:25.372Z,85.30
2023-04-24T00:11:52.580Z,85.30
2023-04-24T00:14:19.455Z,85.40
2023-04-24T00:16:49.107Z,85.40
2023-04-24T00:19:22.335Z,85.50
2023-04-24T00:21:52.568Z,85.50
2023-04-24T00:24:19.631Z,85.40
2023-04-24T00:26:46.528Z,85.60
2023-04-24T00:29:14.943Z,85.60
2023-04-24T00:31:41.783Z,85.70
2023-04-24T00:34:08.803Z,85.80
2023-04-24T00:36:36.157Z,85.70
2023-04-24T00:39:03.366Z,85.80
2023-04-24T00:41:32.617Z,85.90
2023-04-24T00:43:59.686Z,85.90
2023-04-24T00:46:26.536Z,85.90
2023-04-24T00:48:53.431Z,85.90
2023-04-24T00:51:21.174Z,86.00
2023-04-24T00:53:48.059Z,85.90
2023-04-24T00:56:15.246Z,85.80
2023-04-24T00:58:42.917Z,85.90
2023-04-24T01:01:12.733Z,85.90
2023-04-24T01:03:40.012Z,86.00
2023-04-24T01:06:07.918Z,85.90
2023-04-24T01:08:36.929Z,86.00
2023-04-24T01:11:04.925Z,85.90
2023-04-24T01:13:33.457Z,85.90
2023-04-24T01:16:01.527Z,86.00
2023-04-24T01:18:29.259Z,86.00
2023-04-24T01:21:00.112Z,86.10
2023-04-24T01:23:27.782Z,86.20
2023-04-24T01:25:54.909Z,86.10
2023-04-24T01:28:22.442Z,86.00
2023-04-24T01:30:49.616Z,86.10
2023-04-24T01:33:17.165Z,86.20
2023-04-24T01:35:44.571Z,86.20
2023-04-24T01:38:11.818Z,86.30
2023-04-24T01:40:39.151Z,86.30
2023-04-24T01:43:06.167Z,86.30
2023-04-24T01:45:33.077Z,86.30
2023-04-24T01:48:00.065Z,86.30
2023-04-24T01:50:27.154Z,87.10
2023-04-24T01:52:53.986Z,86.50
2023-04-24T01:55:20.908Z,86.50
2023-04-24T01:57:48.149Z,86.40
2023-04-24T02:00:17.856Z,87.30
2023-04-24T02:02:48.022Z,86.50
2023-04-24T02:05:15.324Z,86.60
2023-04-24T02:07:42.219Z,86.60
2023-04-24T02:10:09.576Z,86.60
2023-04-24T02:12:36.508Z,86.60
2023-04-24T02:15:03.884Z,86.60
2023-04-24T02:17:31.801Z,86.60
2023-04-24T02:19:58.639Z,86.70
2023-04-24T02:22:25.384Z,86.80
2023-04-24T02:24:52.128Z,86.80
2023-04-24T02:27:18.941Z,86.90
2023-04-24T02:29:46.119Z,86.90
2023-04-24T02:32:13.236Z,86.90
2023-04-24T02:34:40.332Z,87.10
2023-04-24T02:37:07.295Z,87.10
2023-04-24T02:39:34.129Z,87.20
2023-04-24T02:42:01.268Z,87.00
2023-04-24T02:44:28.125Z,87.20
2023-04-24T02:46:54.910Z,87.10
2023-04-24T02:49:24.474Z,87.10
2023-04-24T02:51:51.363Z,87.20
2023-04-24T02:54:18.236Z,87.20
2023-04-24T02:56:44.913Z,87.20
2023-04-24T02:59:11.848Z,87.30
2023-04-24T03:01:38.778Z,87.30
2023-04-24T03:04:06.339Z,87.20
2023-04-24T03:06:34.025Z,87.20
2023-04-24T03:09:00.868Z,87.20
2023-04-24T03:11:27.750Z,87.20
2023-04-24T03:13:54.521Z,87.30
2023-04-24T03:16:21.465Z,87.30
2023-04-24T03:18:48.346Z,88.20
2023-04-24T03:21:15.237Z,87.30
2023-04-24T03:23:42.069Z,87.30
2023-04-24T03:26:08.834Z,87.30
2023-04-24T03:28:35.790Z,87.30
2023-04-24T03:31:04.191Z,87.10
2023-04-24T03:33:34.012Z,87.20
2023-04-24T03:36:00.804Z,87.10
2023-04-24T03:38:27.502Z,87.30
2023-04-24T03:40:54.465Z,87.20
2023-04-24T03:43:21.271Z,87.20
2023-04-24T03:45:48.318Z,87.00
2023-04-24T03:48:15.082Z,87.10
2023-04-24T03:50:41.837Z,87.20
2023-04-24T03:53:09.232Z,87.10
2023-04-24T03:55:36.188Z,87.20
2023-04-24T03:58:02.980Z,87.20
2023-04-24T04:00:32.654Z,87.30
2023-04-24T04:02:59.490Z,87.30
2023-04-24T04:05:26.461Z,87.20
2023-04-24T04:07:53.184Z,87.20
2023-04-24T04:10:20.345Z,87.20
2023-04-24T04:12:47.129Z,87.20
2023-04-24T04:15:16.970Z,87.20
2023-04-24T04:17:47.235Z,87.20
2023-04-24T04:20:17.223Z,87.20
2023-04-24T04:22:44.712Z,87.30
2023-04-24T04:25:12.740Z,87.50
2023-04-24T04:27:39.922Z,87.50
2023-04-24T04:30:07.418Z,87.50
2023-04-24T04:32:34.854Z,87.60
2023-04-24T04:35:04.053Z,87.70
2023-04-24T04:37:32.344Z,88.50
2023-04-24T04:39:59.627Z,87.70
2023-04-24T04:42:28.007Z,87.80
2023-04-24T04:44:55.029Z,87.90
2023-04-24T04:47:25.925Z,88.00
2023-04-24T04:49:52.930Z,88.00
2023-04-24T04:52:20.368Z,88.00
2023-04-24T04:54:47.717Z,88.00
2023-04-24T04:57:17.663Z,88.00
2023-04-24T04:59:44.890Z,88.10
2023-04-24T05:02:12.134Z,88.20
2023-04-24T05:04:39.196Z,88.30
2023-04-24T05:07:06.659Z,88.30
2023-04-24T05:09:39.400Z,88.30
2023-04-24T05:12:06.293Z,89.20
2023-04-24T05:14:33.157Z,88.50
2023-04-24T05:17:01.284Z,88.50
2023-04-24T05:19:28.042Z,88.60
2023-04-24T05:21:57.602Z,88.60
2023-04-24T05:24:24.516Z,88.50
2023-04-24T05:26:51.426Z,88.60
2023-04-24T05:29:22.539Z,88.60
2023-04-24T05:31:49.488Z,88.70
2023-04-24T05:34:17.762Z,88.60
2023-04-24T05:36:47.616Z,88.60
2023-04-24T05:39:14.753Z,88.60
2023-04-24T05:41:41.853Z,88.60
2023-04-24T05:44:08.642Z,88.60
2023-04-24T05:46:35.765Z,88.60
2023-04-24T05:49:06.014Z,88.60
2023-04-24T05:51:32.773Z,88.70
2023-04-24T05:53:59.735Z,88.70
2023-04-24T05:56:26.539Z,88.70
2023-04-24T05:58:55.204Z,88.70
2023-04-24T06:01:22.058Z,88.70
2023-04-24T06:03:49.835Z,88.70
2023-04-24T06:06:17.067Z,88.80
2023-04-24T06:08:45.198Z,88.70
2023-04-24T06:11:12.013Z,88.60
2023-04-24T06:13:38.865Z,88.60
2023-04-24T06:16:06.343Z,88.60
2023-04-24T06:18:33.171Z,88.60
2023-04-24T06:20:59.981Z,88.60
2023-04-24T06:23:27.210Z,88.60
2023-04-24T06:25:54.203Z,89.80
2023-04-24T06:28:20.934Z,89.80
2023-04-24T06:30:47.920Z,89.80
2023-04-24T06:33:21.711Z,90.00
2023-04-24T06:35:49.275Z,90.00
2023-04-24T06:38:18.839Z,90.00
2023-04-24T06:40:46.241Z,90.00
2023-04-24T06:43:13.434Z,90.00
2023-04-24T06:45:41.019Z,90.10
2023-04-24T06:48:08.067Z,90.20
2023-04-24T06:50:35.010Z,90.10
2023-04-24T06:53:01.800Z,90.20
2023-04-24T06:55:28.593Z,90.10
2023-04-24T06:57:55.589Z,90.10
2023-04-24T07:00:25.511Z,90.20
2023-04-24T07:02:52.665Z,90.10
2023-04-24T07:05:21.288Z,90.10
2023-04-24T07:07:48.873Z,90.20
2023-04-24T07:10:15.722Z,90.10
2023-04-24T07:12:43.024Z,90.10
2023-04-24T07:15:10.295Z,90.10
2023-04-24T07:17:37.233Z,90.10
2023-04-24T07:20:05.130Z,90.10
2023-04-24T07:22:31.892Z,90.10
2023-04-24T07:24:58.713Z,90.10
2023-04-24T07:27:26.717Z,90.20
2023-04-24T07:29:53.608Z,90.10
2023-04-24T07:32:20.516Z,90.10
2023-04-24T07:34:47.341Z,90.20
2023-04-24T07:37:14.085Z,90.20
2023-04-24T07:39:41.234Z,90.20
2023-04-24T07:42:08.331Z,90.20
2023-04-24T07:44:37.642Z,90.30
2023-04-24T07:47:07.230Z,90.20
2023-04-24T07:49:35.815Z,90.30
2023-04-24T07:52:03.586Z,90.30
2023-04-24T07:54:30.821Z,90.30
2023-04-24T07:56:57.731Z,90.30
2023-04-24T07:59:24.620Z,90.30
2023-04-24T08:01:51.360Z,90.30
2023-04-24T08:04:19.077Z,90.30
2023-04-24T08:06:45.995Z,90.30
2023-04-24T08:09:15.597Z,90.30
2023-04-24T08:11:42.471Z,90.30
2023-04-24T08:14:14.186Z,90.30
2023-04-24T08:16:41.467Z,90.30
2023-04-24T08:19:11.745Z,90.20
2023-04-24T08:21:38.549Z,90.20
2023-04-24T08:24:09.320Z,90.20
2023-04-24T08:26:36.128Z,90.20
2023-04-24T08:29:03.006Z,90.10
2023-04-24T08:31:30.153Z,90.10
2023-04-24T08:33:57.087Z,90.00
2023-04-24T08:36:28.228Z,90.00
2023-04-24T08:39:00.338Z,90.00
2023-04-24T08:41:31.711Z,90.00
2023-04-24T08:44:03.445Z,90.00
2023-04-24T08:46:32.012Z,90.10
2023-04-24T08:48:59.429Z,90.10
2023-04-24T08:51:27.541Z,90.40
2023-04-24T08:53:55.993Z,90.00
2023-04-24T08:56:24.490Z,90.00
2023-04-24T08:58:58.738Z,88.90
2023-04-24T09:01:26.502Z,88.60
2023-04-24T09:03:55.442Z,88.30
2023-04-24T09:06:24.376Z,88.50
2023-04-24T09:08:52.133Z,88.40
2023-04-24T09:11:19.245Z,88.50
2023-04-24T09:13:46.691Z,88.50
2023-04-24T09:16:15.404Z,88.20
2023-04-24T09:18:42.256Z,88.00
2023-04-24T09:21:12.810Z,87.80
2023-04-24T09:23:42.599Z,87.70
2023-04-24T09:26:11.567Z,87.40
2023-04-24T09:28:40.783Z,87.10
2023-04-24T09:31:10.568Z,86.80
2023-04-24T09:33:37.963Z,86.30
2023-04-24T09:36:07.653Z,86.40
2023-04-24T09:38:39.081Z,86.40
2023-04-24T09:41:08.453Z,86.20
2023-04-24T09:43:36.152Z,85.80
2023-04-24T09:46:08.362Z,85.60
2023-04-24T09:48:45.379Z,85.20
2023-04-24T09:51:13.938Z,85.10
2023-04-24T09:53:47.023Z,84.90
2023-04-24T09:56:14.098Z,84.60
2023-04-24T09:58:41.303Z,84.50
2023-04-24T10:01:08.396Z,85.20
2023-04-24T10:03:35.948Z,84.20
2023-04-24T10:06:09.530Z,84.10
2023-04-24T10:08:38.449Z,84.20
2023-04-24T10:11:06.183Z,84.20
2023-04-24T10:13:33.938Z,83.90
2023-04-24T10:16:04.805Z,83.60
2023-04-24T10:18:31.881Z,83.50
2023-04-24T10:21:01.160Z,84.30
2023-04-24T10:23:29.169Z,83.30
2023-04-24T10:25:56.642Z,83.00
2023-04-24T10:28:25.481Z,82.50
2023-04-24T10:30:56.100Z,82.30
2023-04-24T10:33:24.015Z,82.30
2023-04-24T10:35:52.763Z,82.60
2023-04-24T10:38:27.871Z,82.80
2023-04-24T10:41:10.571Z,82.90
2023-04-24T10:43:37.645Z,82.70
2023-04-24T10:46:07.347Z,82.50
2023-04-24T10:48:34.981Z,82.40
2023-04-24T10:51:02.709Z,82.10
2023-04-24T10:53:30.979Z,81.50
2023-04-24T10:56:06.805Z,81.40
2023-04-24T10:58:52.977Z,81.40
2023-04-24T11:01:28.028Z,81.30
2023-04-24T11:04:00.109Z,80.90
2023-04-24T11:06:44.873Z,80.80
2023-04-24T11:09:16.507Z,80.30
2023-04-24T11:11:48.061Z,79.90
2023-04-24T11:14:22.822Z,79.60
2023-04-24T11:16:54.608Z,79.00
2023-04-24T11:19:29.647Z,78.70
2023-04-24T11:22:04.505Z,78.60
2023-04-24T11:24:43.311Z,78.80
2023-04-24T11:27:20.967Z,78.80
2023-04-24T11:30:01.880Z,78.60
2023-04-24T11:32:41.929Z,78.70
2023-04-24T11:35:25.905Z,78.90
2023-04-24T11:40:29.250Z,78.50
2023-04-24T11:43:00.944Z,78.80
2023-04-24T11:45:31.000Z,79.70
2023-04-24T11:47:58.103Z,79.00
2023-04-24T11:50:27.691Z,79.00
2023-04-24T11:52:54.922Z,79.00
2023-04-24T11:55:21.609Z,79.30
2023-04-24T11:57:50.835Z,79.10
2023-04-24T12:00:20.175Z,79.10
2023-04-24T12:02:51.627Z,79.10
2023-04-24T12:05:35.894Z,78.70
2023-04-24T12:08:03.365Z,78.00
2023-04-24T12:10:31.907Z,78.10
2023-04-24T12:12:59.810Z,77.90
2023-04-24T12:15:27.487Z,77.80
2023-04-24T12:17:55.674Z,78.00
2023-04-24T12:20:30.380Z,78.00
2023-04-24T12:22:58.764Z,77.90
2023-04-24T12:25:28.004Z,78.00
2023-04-24T12:27:57.041Z,78.10
2023-04-24T12:30:31.315Z,78.30
2023-04-24T12:33:01.914Z,78.90
2023-04-24T12:35:30.929Z,79.50
2023-04-24T12:38:09.758Z,79.50
2023-04-24T12:40:36.863Z,79.20
2023-04-24T12:43:13.948Z,79.20
2023-04-24T12:45:40.787Z,79.20
2023-04-24T12:48:07.506Z,79.20
2023-04-24T12:50:34.411Z,79.00
2023-04-24T12:53:01.449Z,79.10
2023-04-24T12:55:28.216Z,79.30
2023-04-24T12:57:56.372Z,79.60
2023-04-24T13:00:23.276Z,80.00
2023-04-24T13:02:50.375Z,80.20
2023-04-24T13:05:17.358Z,79.80
2023-04-24T13:07:44.164Z,79.20
2023-04-24T13:10:14.362Z,78.40
2023-04-24T13:12:41.676Z,78.30
2023-04-24T13:15:08.757Z,78.30
2023-04-24T13:17:35.697Z,78.20
2023-04-24T13:20:02.466Z,77.80
2023-04-24T13:22:29.218Z,77.00
2023-04-24T13:24:58.752Z,76.30
2023-04-24T13:27:25.645Z,75.70
2023-04-24T13:29:52.455Z,74.50
2023-04-24T13:32:19.432Z,74.50
2023-04-24T13:34:49.433Z,74.50
2023-04-24T13:37:16.173Z,74.30
2023-04-24T13:39:43.025Z,74.80
2023-04-24T13:42:13.708Z,75.30
2023-04-24T13:44:41.370Z,74.80
2023-04-24T13:47:08.082Z,75.10
2023-04-24T13:49:35.213Z,75.50
2023-04-24T13:52:02.836Z,75.50
2023-04-24T13:54:32.659Z,75.60
2023-04-24T13:56:59.831Z,75.80
2023-04-24T13:59:26.944Z,76.00
2023-04-24T14:01:53.802Z,76.10
2023-04-24T14:04:21.013Z,76.00
2023-04-24T14:06:47.907Z,75.80
2023-04-24T14:09:17.596Z,75.60
2023-04-24T14:11:44.477Z,75.70
2023-04-24T14:14:11.825Z,75.40
2023-04-24T14:16:38.636Z,75.20
2023-04-24T14:19:06.524Z,75.50
2023-04-24T14:21:33.840Z,75.60
2023-04-24T14:24:00.693Z,75.70
2023-04-24T14:26:27.505Z,76.00
2023-04-24T14:29:01.132Z,76.20
2023-04-24T14:31:34.325Z,76.20
2023-04-24T14:34:03.752Z,76.00
2023-04-24T14:36:31.619Z,75.70
2023-04-24T14:38:58.507Z,75.40
2023-04-24T14:41:25.309Z,75.40
2023-04-24T14:43:52.190Z,75.60
2023-04-24T14:46:19.009Z,75.20
2023-04-24T14:48:46.094Z,75.30
2023-04-24T14:51:13.446Z,75.30
2023-04-24T14:53:40.163Z,75.80
2023-04-24T14:56:07.277Z,76.10
2023-04-24T14:58:34.101Z,76.40
2023-04-24T15:01:01.136Z,76.80
2023-04-24T15:03:28.129Z,77.20
2023-04-24T15:05:55.283Z,77.30
2023-04-24T15:08:22.209Z,77.40
2023-04-24T15:10:49.390Z,77.30
2023-04-24T15:13:16.428Z,77.30
2023-04-24T15:15:43.461Z,77.00
2023-04-24T15:18:13.494Z,77.00
2023-04-24T15:20:40.450Z,77.00
2023-04-24T15:23:08.316Z,77.10
2023-04-24T15:25:35.280Z,77.10
2023-04-24T15:28:02.256Z,76.80
2023-04-24T15:30:30.276Z,76.60
2023-04-24T15:32:57.277Z,75.80
2023-04-24T15:35:24.371Z,75.40
2023-04-24T15:37:51.236Z,74.60
2023-04-24T15:40:21.490Z,73.70
2023-04-24T15:42:48.851Z,72.60
2023-04-24T15:45:16.113Z,73.20
2023-04-24T15:47:42.917Z,72.60
2023-04-24T15:50:12.122Z,73.40
2023-04-24T15:52:43.425Z,72.70
2023-04-24T15:55:10.673Z,72.70
2023-04-24T15:57:37.628Z,72.50
2023-04-24T16:00:09.835Z,72.30
2023-04-24T16:02:36.928Z,72.20
2023-04-24T16:05:04.221Z,72.00
2023-04-24T16:07:32.511Z,72.20
2023-04-24T16:09:59.351Z,72.00
2023-04-24T16:12:29.166Z,71.70
2023-04-24T16:14:56.128Z,71.60
2023-04-24T16:17:23.135Z,71.90
2023-04-24T16:19:49.791Z,72.30
2023-04-24T16:22:16.656Z,72.50
2023-04-24T16:24:43.827Z,72.80
2023-04-24T16:27:10.981Z,72.60
2023-04-24T16:29:37.961Z,71.90
2023-04-24T16:32:13.300Z,71.50
2023-04-24T16:34:40.717Z,70.90
2023-04-24T16:37:13.567Z,71.10
2023-04-24T16:39:49.591Z,71.20
2023-04-24T16:42:37.114Z,71.40
2023-04-24T16:45:04.395Z,71.30
2023-04-24T16:47:31.542Z,71.20
2023-04-24T16:49:58.451Z,71.00
2023-04-24T16:52:25.360Z,71.10
2023-04-24T16:54:52.116Z,70.80
2023-04-24T16:57:18.922Z,70.90
2023-04-24T16:59:45.927Z,70.80
2023-04-24T17:02:15.751Z,71.00
2023-04-24T17:04:42.540Z,71.00
2023-04-24T17:07:09.397Z,71.00
2023-04-24T17:09:36.522Z,71.20
2023-04-24T17:12:03.411Z,71.20
2023-04-24T17:14:30.398Z,71.20
2023-04-24T17:16:57.303Z,71.50
2023-04-24T17:19:27.589Z,71.50
2023-04-24T17:21:54.469Z,71.60
2023-04-24T17:24:21.258Z,71.70
2023-04-24T17:26:51.991Z,71.40
2023-04-24T17:29:24.430Z,71.50
2023-04-24T17:31:54.170Z,71.80
2023-04-24T17:34:21.036Z,71.80
2023-04-24T17:36:47.820Z,71.80
2023-04-24T17:39:14.609Z,71.70
2023-04-24T17:41:41.427Z,71.80
2023-04-24T17:44:08.471Z,71.60
2023-04-24T17:46:35.719Z,71.50
2023-04-24T17:49:02.693Z,71.60
2023-04-24T17:51:29.544Z,71.60
2023-04-24T17:53:56.332Z,71.70
2023-04-24T17:56:24.932Z,71.60
2023-04-24T17:58:52.391Z,71.60
2023-04-24T18:01:26.718Z,71.30
2023-04-24T18:03:53.842Z,71.30
2023-04-24T18:06:20.831Z,71.30
2023-04-24T18:08:47.674Z,71.30
2023-04-24T18:11:17.433Z,71.10
2023-04-24T18:13:46.100Z,71.00
2023-04-24T18:16:12.894Z,70.90
2023-04-24T18:18:42.509Z,70.80
2023-04-24T18:21:09.231Z,70.90
2023-04-24T18:23:36.054Z,71.10
2023-04-24T18:26:07.177Z,71.10
2023-04-24T18:28:34.735Z,71.00
2023-04-24T18:31:04.647Z,71.10
2023-04-24T18:33:34.567Z,71.20
2023-04-24T18:36:03.574Z,71.20
2023-04-24T18:38:30.574Z,71.20
2023-04-24T18:40:59.908Z,71.20
2023-04-24T18:43:26.565Z,71.10
2023-04-24T18:45:53.550Z,71.90
2023-04-24T18:48:20.518Z,72.10
2023-04-24T18:50:47.286Z,72.00
2023-04-24T18:53:16.923Z,72.00
2023-04-24T18:55:43.977Z,72.00
2023-04-24T18:58:11.039Z,72.10
2023-04-24T19:00:38.658Z,72.00
2023-04-24T19:03:06.053Z,72.20
2023-04-24T19:05:32.969Z,72.90
2023-04-24T19:07:59.875Z,72.20
2023-04-24T19:10:27.706Z,72.20
2023-04-24T19:12:56.790Z,72.30
2023-04-24T19:15:24.979Z,72.40
2023-04-24T19:17:52.045Z,72.40
2023-04-24T19:20:19.498Z,72.30
2023-04-24T19:22:47.516Z,72.40
2023-04-24T19:25:14.467Z,72.50
2023-04-24T19:27:41.380Z,72.50
2023-04-24T19:30:08.593Z,72.60
2023-04-24T19:32:35.537Z,72.60
2023-04-24T19:35:05.117Z,72.70
2023-04-24T19:37:34.308Z,72.80
2023-04-24T19:40:01.760Z,72.90
2023-04-24T19:42:42.625Z,72.90
2023-04-24T19:45:12.418Z,73.10
2023-04-24T19:47:39.752Z,73.10
2023-04-24T19:50:07.332Z,73.10
2023-04-24T19:52:34.568Z,73.30
2023-04-24T19:55:01.380Z,73.20
2023-04-24T19:57:28.080Z,73.30
2023-04-24T19:59:54.994Z,73.40
2023-04-24T20:02:29.122Z,73.50
2023-04-24T20:04:56.205Z,73.60
2023-04-24T20:07:23.082Z,73.60
2023-04-24T20:09:49.808Z,73.70
2023-04-24T20:12:16.686Z,73.70
2023-04-24T20:14:43.578Z,73.80
2023-04-24T20:17:10.497Z,73.90
2023-04-24T20:19:37.759Z,73.90
2023-04-24T20:22:04.814Z,74.00
2023-04-24T20:24:31.607Z,73.90
2023-04-24T20:26:58.454Z,74.00
2023-04-24T20:29:28.221Z,74.10
2023-04-24T20:31:55.215Z,74.10
2023-04-24T20:34:22.483Z,74.20
2023-04-24T20:36:49.872Z,74.30
2023-04-24T20:39:19.921Z,74.30
2023-04-24T20:41:47.649Z,74.40
2023-04-24T20:44:16.280Z,74.50
2023-04-24T20:46:43.091Z,74.50
2023-04-24T20:49:10.137Z,74.70
2023-04-24T20:51:37.069Z,74.80
2023-04-24T20:54:07.098Z,74.80
2023-04-24T20:56:33.817Z,75.00
2023-04-24T20:59:00.953Z,75.10
2023-04-24T21:01:27.753Z,75.20
2023-04-24T21:03:54.673Z,75.20
2023-04-24T21:06:21.891Z,75.30
2023-04-24T21:08:48.667Z,75.50
2023-04-24T21:11:15.431Z,75.60
2023-04-24T21:13:42.207Z,75.70
2023-04-24T21:16:09.007Z,75.70
2023-04-24T21:18:41.123Z,75.70
2023-04-24T21:21:09.395Z,75.80
2023-04-24T21:23:36.547Z,76.00
2023-04-24T21:26:04.281Z,76.00
2023-04-24T21:28:31.510Z,76.00
2023-04-24T21:30:58.369Z,76.20
2023-04-24T21:33:25.255Z,76.30
2023-04-24T21:35:52.072Z,76.40
2023-04-24T21:38:28.563Z,76.40
2023-04-24T21:40:55.315Z,76.50
2023-04-24T21:43:28.066Z,76.60
2023-04-24T21:46:04.297Z,76.70
2023-04-24T21:48:31.172Z,76.60
2023-04-24T21:50:58.076Z,76.80
2023-04-24T21:53:24.921Z,76.80
2023-04-24T21:55:51.851Z,76.90
2023-04-24T21:58:18.683Z,77.00
2023-04-24T22:00:45.659Z,76.90
2023-04-24T22:03:12.636Z,77.90
2023-04-24T22:05:39.317Z,77.20
2023-04-24T22:08:07.463Z,77.10
2023-04-24T22:10:34.346Z,77.20
2023-04-24T22:13:01.106Z,77.30
2023-04-24T22:15:28.819Z,77.40
2023-04-24T22:17:57.562Z,77.40
2023-04-24T22:20:25.895Z,77.50
2023-04-24T22:22:53.182Z,77.50
2023-04-24T22:25:19.959Z,77.60
2023-04-24T22:27:46.853Z,77.70
2023-04-24T22:30:13.917Z,77.80
2023-04-24T22:32:40.796Z,77.80
2023-04-24T22:35:10.842Z,77.80
2023-04-24T22:37:37.670Z,77.90
2023-04-24T22:40:05.596Z,78.00
2023-04-24T22:42:32.413Z,78.20
2023-04-24T22:45:01.774Z,78.20
2023-04-24T22:47:29.019Z,78.20
2023-04-24T22:49:57.517Z,78.30
2023-04-24T22:52:24.377Z,78.30
2023-04-24T22:54:52.137Z,78.40
2023-04-24T22:57:19.017Z,78.30
2023-04-24T22:59:45.940Z,78.40
2023-04-24T23:02:12.873Z,78.50
2023-04-24T23:04:39.758Z,78.50
2023-04-24T23:07:06.611Z,78.60
2023-04-24T23:09:33.720Z,78.60
2023-04-24T23:12:03.563Z,78.60
2023-04-24T23:14:30.508Z,78.60
2023-04-24T23:16:57.521Z,78.60
2023-04-24T23:19:24.402Z,78.70
2023-04-24T23:21:51.400Z,78.80
2023-04-24T23:24:18.102Z,78.70
2023-04-24T23:26:44.992Z,78.90
2023-04-24T23:29:11.713Z,78.90
2023-04-24T23:31:41.190Z,78.90
2023-04-24T23:34:08.089Z,78.90
2023-04-24T23:36:34.877Z,79.00
2023-04-24T23:39:01.798Z,79.00
2023-04-24T23:41:28.791Z,79.10
2023-04-24T23:43:55.692Z,79.10
2023-04-24T23:46:25.247Z,79.50
2023-04-24T23:48:52.114Z,79.20
2023-04-24T23:51:19.174Z,79.30
2023-04-24T23:53:46.447Z,79.30
2023-04-24T23:56:16.535Z,79.40
2023-04-24T23:58:43.374Z,79.40
